This is the latest recevied weather packets stored in our database for station/object OK1FET-6. If no packets are shown the sender has not sent any weather packets the latest 1 day(s).
| Time | Temp. | Humidity | Pressure | Rain* | Wind** | Luminosity | Snow |
|---|---|---|---|---|---|---|---|
| 1778086532 | 16.11° C | 78% | 1004 hPa | 1.02 mm | - | - | - |
| 1778085319 | 16.67° C | 78% | 1004.2 hPa | 1.52 mm | - | - | - |
| 1778084409 | 16.67° C | 76% | 1004.4 hPa | 1.52 mm | - | - | - |
| 1778083195 | 16.67° C | 73% | 1004.3 hPa | 1.02 mm | - | - | - |
| 1778082891 | 16.67° C | 73% | 1004.5 hPa | 0.51 mm | - | - | - |
| 1778081394 | 18.89° C | 69% | 1004.3 hPa | 0 mm | - | - | - |
| 1778080797 | 20° C | 67% | 1004.5 hPa | 0 mm | - | - | - |
| 1778080200 | 21.11° C | 67% | 1004.6 hPa | 0 mm | - | - | - |
| 1778079006 | 23.89° C | 64% | 1004.5 hPa | 0 mm | - | - | - |
| 1778078409 | 25.56° C | 62% | 1004.6 hPa | 0 mm | - | - | - |
| 1778077812 | 27.22° C | 61% | 1004.6 hPa | 0 mm | - | - | - |
| 1778077513 | 28.33° C | 60% | 1004.7 hPa | 0 mm | - | - | - |
| 1778077215 | 28.89° C | 60% | 1004.8 hPa | 0 mm | - | - | - |
| 1778076916 | 30° C | 60% | 1004.8 hPa | 0 mm | - | - | - |
| 1778076319 | 31.67° C | 59% | 1004.9 hPa | 0 mm | - | - | - |
| 1778075722 | 33.89° C | 58% | 1005 hPa | 0 mm | - | - | - |
| 1778075125 | 36.11° C | 57% | 1005.1 hPa | 0 mm | - | - | - |
| 1778074528 | 38.89° C | 55% | 1005.2 hPa | 0 mm | - | - | - |
| 1778073931 | 39.44° C | 58% | 1005.3 hPa | 0 mm | - | - | - |
| 1778073035 | 41.67° C | 58% | 1005.6 hPa | 0 mm | - | - | - |
| 1778072438 | 40.56° C | 63% | 1005.8 hPa | 0 mm | - | - | - |
| 1778071543 | 38.89° C | 70% | 1006 hPa | 0 mm | - | - | - |
| 1778070945 | 37.22° C | 70% | 1006.2 hPa | 0 mm | - | - | - |
| 1778070348 | 36.67° C | 70% | 1006.3 hPa | 0 mm | - | - | - |
| 1778068855 | 35.56° C | 68% | 1006.5 hPa | 0 mm | - | - | - |
* Rain latest hour (hover to see other rain measurements)
** Current wind speed in m/s (hover to see current wind gust speed)